createdAt,value
2023-02-02T00:00:57.380Z,75.80
2023-02-02T00:03:24.700Z,75.80
2023-02-02T00:05:53.580Z,75.70
2023-02-02T00:08:21.852Z,75.80
2023-02-02T00:10:50.488Z,75.60
2023-02-02T00:13:18.976Z,75.60
2023-02-02T00:15:46.187Z,75.10
2023-02-02T00:18:13.451Z,75.30
2023-02-02T00:20:40.734Z,74.90
2023-02-02T00:23:08.014Z,74.90
2023-02-02T00:25:35.277Z,74.70
2023-02-02T00:28:02.500Z,75.10
2023-02-02T00:30:31.692Z,74.60
2023-02-02T00:32:58.909Z,74.60
2023-02-02T00:35:26.277Z,74.50
2023-02-02T00:37:53.547Z,74.40
2023-02-02T00:40:20.861Z,74.60
2023-02-02T00:42:50.424Z,74.90
2023-02-02T00:45:17.849Z,74.90
2023-02-02T00:47:49.158Z,74.70
2023-02-02T00:50:19.432Z,74.60
2023-02-02T00:52:47.712Z,74.70
2023-02-02T00:55:16.417Z,75.00
2023-02-02T00:57:44.347Z,75.00
2023-02-02T01:00:15.455Z,75.00
2023-02-02T01:02:42.885Z,75.40
2023-02-02T01:05:12.263Z,75.80
2023-02-02T01:07:40.192Z,75.60
2023-02-02T01:10:10.815Z,76.00
2023-02-02T01:12:38.039Z,76.00
2023-02-02T01:15:07.040Z,76.20
2023-02-02T01:17:34.728Z,76.50
2023-02-02T01:20:02.028Z,76.80
2023-02-02T01:22:30.576Z,76.80
2023-02-02T01:24:57.764Z,77.20
2023-02-02T01:27:25.724Z,77.50
2023-02-02T01:29:53.378Z,77.90
2023-02-02T01:32:21.073Z,77.90
2023-02-02T01:34:48.260Z,78.00
2023-02-02T01:37:15.492Z,78.40
2023-02-02T01:39:44.017Z,78.50
2023-02-02T01:42:14.120Z,78.80
2023-02-02T01:45:13.112Z,78.70
2023-02-02T01:47:43.532Z,78.70
2023-02-02T01:50:13.120Z,78.50
2023-02-02T01:52:43.280Z,78.40
2023-02-02T01:55:14.527Z,78.30
2023-02-02T01:57:46.551Z,78.40
2023-02-02T02:00:15.891Z,78.50
2023-02-02T02:02:46.430Z,78.80
2023-02-02T02:05:18.753Z,78.80
2023-02-02T02:07:49.731Z,78.90
2023-02-02T02:10:19.233Z,78.80
2023-02-02T02:12:48.550Z,78.80
2023-02-02T02:15:34.670Z,78.70
2023-02-02T02:18:09.307Z,78.90
2023-02-02T02:21:28.808Z,79.10
2023-02-02T02:25:02.462Z,78.90
2023-02-02T02:28:01.017Z,78.70
2023-02-02T02:30:42.096Z,78.40
2023-02-02T02:33:15.583Z,78.30
2023-02-02T02:35:51.933Z,78.20
2023-02-02T02:38:26.082Z,78.00
2023-02-02T02:40:58.512Z,78.00
2023-02-02T02:43:30.810Z,77.90
2023-02-02T02:45:59.334Z,78.00
2023-02-02T02:48:29.014Z,77.90
2023-02-02T02:51:05.963Z,77.70
2023-02-02T02:53:33.808Z,77.50
2023-02-02T02:56:09.579Z,77.50
2023-02-02T02:58:49.574Z,77.70
2023-02-02T03:01:21.816Z,77.70
2023-02-02T03:04:08.504Z,77.50
2023-02-02T03:06:41.046Z,77.50
2023-02-02T03:09:12.531Z,77.40
2023-02-02T03:11:39.780Z,77.30
2023-02-02T03:14:09.642Z,77.10
2023-02-02T03:16:37.432Z,77.10
2023-02-02T03:19:07.352Z,76.80
2023-02-02T03:21:35.201Z,76.60
2023-02-02T03:24:02.394Z,76.80
2023-02-02T03:26:29.856Z,77.00
2023-02-02T03:28:57.759Z,76.80
2023-02-02T03:31:27.120Z,76.80
2023-02-02T03:33:54.661Z,76.80
2023-02-02T03:36:23.282Z,76.80
2023-02-02T03:38:50.475Z,76.70
2023-02-02T03:41:17.803Z,76.50
2023-02-02T03:43:45.103Z,76.60
2023-02-02T03:46:12.322Z,76.50
2023-02-02T03:48:39.671Z,76.70
2023-02-02T03:51:07.946Z,77.00
2023-02-02T03:53:36.660Z,76.80
2023-02-02T03:56:04.329Z,76.80
2023-02-02T03:58:31.565Z,76.80
2023-02-02T04:01:03.769Z,76.80
2023-02-02T04:03:30.991Z,76.20
2023-02-02T04:05:58.219Z,76.30
2023-02-02T04:08:25.459Z,76.20
2023-02-02T04:10:54.112Z,76.50
2023-02-02T04:13:21.388Z,76.80
2023-02-02T04:15:48.663Z,76.50
2023-02-02T04:18:15.857Z,76.40
2023-02-02T04:20:43.048Z,76.20
2023-02-02T04:23:10.228Z,76.10
2023-02-02T04:25:37.452Z,76.00
2023-02-02T04:28:06.079Z,75.90
2023-02-02T04:30:33.328Z,75.90
2023-02-02T04:33:00.692Z,75.50
2023-02-02T04:35:27.885Z,75.90
2023-02-02T04:37:55.483Z,75.90
2023-02-02T04:40:22.850Z,75.90
2023-02-02T04:42:50.033Z,75.80
2023-02-02T04:45:18.776Z,75.70
2023-02-02T04:47:45.955Z,75.80
2023-02-02T04:50:13.249Z,75.70
2023-02-02T04:52:40.548Z,75.70
2023-02-02T04:55:08.548Z,75.50
2023-02-02T04:57:35.985Z,75.30
2023-02-02T05:00:03.638Z,75.50
2023-02-02T05:02:35.122Z,75.50
2023-02-02T05:05:02.341Z,75.20
2023-02-02T05:07:30.223Z,75.30
2023-02-02T05:09:57.512Z,75.40
2023-02-02T05:12:24.844Z,75.40
2023-02-02T05:14:52.115Z,75.40
2023-02-02T05:17:19.297Z,75.80
2023-02-02T05:19:47.821Z,76.10
2023-02-02T05:22:15.032Z,76.40
2023-02-02T05:24:42.206Z,76.30
2023-02-02T05:27:09.435Z,76.50
2023-02-02T05:29:36.667Z,76.30
2023-02-02T05:32:04.300Z,76.30
2023-02-02T05:34:31.569Z,76.20
2023-02-02T05:37:00.095Z,76.10
2023-02-02T05:39:27.332Z,76.00
2023-02-02T05:41:54.530Z,75.90
2023-02-02T05:44:21.862Z,75.70
2023-02-02T05:46:49.049Z,75.30
2023-02-02T05:49:16.282Z,75.10
2023-02-02T05:51:46.863Z,75.30
2023-02-02T05:54:19.380Z,75.30
2023-02-02T05:56:47.036Z,75.30
2023-02-02T05:59:14.523Z,75.00
2023-02-02T06:01:41.729Z,75.00
2023-02-02T06:04:09.068Z,75.20
2023-02-02T06:06:37.876Z,74.80
2023-02-02T06:09:05.379Z,74.70
2023-02-02T06:11:34.742Z,74.50
2023-02-02T06:14:02.369Z,74.10
2023-02-02T06:16:29.596Z,74.10
2023-02-02T06:18:57.103Z,74.00
2023-02-02T06:21:24.754Z,74.10
2023-02-02T06:23:52.165Z,73.90
2023-02-02T06:26:19.774Z,73.70
2023-02-02T06:28:51.289Z,73.90
2023-02-02T06:31:19.703Z,73.90
2023-02-02T06:33:46.992Z,74.00
2023-02-02T06:36:14.424Z,73.60
2023-02-02T06:38:41.624Z,73.40
2023-02-02T06:41:08.941Z,73.30
2023-02-02T06:43:36.767Z,73.40
2023-02-02T06:46:05.376Z,73.50
2023-02-02T06:48:32.610Z,73.40
2023-02-02T06:51:00.611Z,73.40
2023-02-02T06:53:28.185Z,73.40
2023-02-02T06:55:56.072Z,73.20
2023-02-02T06:58:23.583Z,73.10
2023-02-02T07:00:50.795Z,72.80
2023-02-02T07:03:23.187Z,72.70
2023-02-02T07:05:50.602Z,73.00
2023-02-02T07:08:17.808Z,73.10
2023-02-02T07:11:11.025Z,72.20
2023-02-02T07:13:32.158Z,72.00
2023-02-02T07:15:59.670Z,71.80
2023-02-02T07:18:28.272Z,71.40
2023-02-02T07:20:58.018Z,71.30
2023-02-02T07:23:25.252Z,71.50
2023-02-02T07:26:00.787Z,70.80
2023-02-02T07:28:28.788Z,70.70
2023-02-02T07:30:56.301Z,69.80
2023-02-02T07:33:24.203Z,71.50
2023-02-02T07:35:53.261Z,72.80
2023-02-02T07:38:21.476Z,70.60
2023-02-02T07:40:48.787Z,70.20
2023-02-02T07:43:16.221Z,70.70
2023-02-02T07:45:43.564Z,69.30
2023-02-02T07:48:10.928Z,69.20
2023-02-02T07:50:38.564Z,69.60
2023-02-02T07:53:07.508Z,69.70
2023-02-02T07:55:34.867Z,69.80
2023-02-02T07:58:02.805Z,69.50
2023-02-02T08:00:30.867Z,69.40
2023-02-02T08:02:58.309Z,68.90
2023-02-02T08:05:26.202Z,69.40
2023-02-02T08:07:53.784Z,69.50
2023-02-02T08:10:22.554Z,69.60
2023-02-02T08:12:49.978Z,69.20
2023-02-02T08:15:18.991Z,69.20
2023-02-02T08:17:49.925Z,68.50
2023-02-02T08:20:17.672Z,68.50
2023-02-02T08:22:44.978Z,68.90
2023-02-02T08:25:12.340Z,68.40
2023-02-02T08:27:41.030Z,68.20
2023-02-02T08:30:10.043Z,67.40
2023-02-02T08:32:37.377Z,67.30
2023-02-02T08:35:05.564Z,67.00
2023-02-02T08:37:32.946Z,66.50
2023-02-02T08:40:00.453Z,66.40
2023-02-02T08:42:27.944Z,65.30
2023-02-02T08:45:59.741Z,65.20
2023-02-02T08:47:43.892Z,64.60
2023-02-02T08:50:11.610Z,65.10
2023-02-02T08:52:39.023Z,64.80
2023-02-02T08:55:07.213Z,63.70
2023-02-02T08:57:34.538Z,63.70
2023-02-02T09:00:03.879Z,63.00
2023-02-02T09:02:31.115Z,63.00
2023-02-02T09:04:58.372Z,63.30
2023-02-02T09:07:25.580Z,61.80
2023-02-02T09:09:55.797Z,63.30
2023-02-02T09:12:23.052Z,62.20
2023-02-02T09:14:50.312Z,61.90
2023-02-02T09:17:18.844Z,61.00
2023-02-02T09:19:46.009Z,60.80
2023-02-02T09:22:13.336Z,61.00
2023-02-02T09:24:40.923Z,60.60
2023-02-02T09:27:08.131Z,61.10
2023-02-02T09:29:35.651Z,61.20
2023-02-02T09:32:03.307Z,61.30
2023-02-02T09:34:31.951Z,60.80
2023-02-02T09:36:59.159Z,60.30
2023-02-02T09:39:26.661Z,60.80
2023-02-02T09:42:07.763Z,60.40
2023-02-02T09:45:10.578Z,60.30
2023-02-02T09:47:53.488Z,60.50
2023-02-02T09:50:37.010Z,60.50
2023-02-02T09:53:13.781Z,59.90
2023-02-02T09:55:43.411Z,59.80
2023-02-02T09:58:16.503Z,60.40
2023-02-02T10:00:47.796Z,60.40
2023-02-02T10:03:21.120Z,61.10
2023-02-02T10:05:54.572Z,59.70
2023-02-02T10:08:34.687Z,60.70
2023-02-02T10:11:12.839Z,61.10
2023-02-02T10:13:43.600Z,61.60
2023-02-02T10:16:17.343Z,60.70
2023-02-02T10:18:50.048Z,61.00
2023-02-02T10:21:26.740Z,61.20
2023-02-02T10:23:54.639Z,60.90
2023-02-02T10:26:26.206Z,61.50
2023-02-02T10:29:07.180Z,61.50
2023-02-02T10:31:41.966Z,62.10
2023-02-02T10:34:16.354Z,60.80
2023-02-02T10:36:56.043Z,60.20
2023-02-02T10:39:34.560Z,61.50
2023-02-02T10:42:13.989Z,60.00
2023-02-02T10:44:48.709Z,58.90
2023-02-02T10:47:23.987Z,57.70
2023-02-02T10:49:58.550Z,57.30
2023-02-02T10:52:31.810Z,55.80
2023-02-02T10:55:04.494Z,55.90
2023-02-02T10:57:48.611Z,55.30
2023-02-02T11:00:23.142Z,55.60
2023-02-02T11:02:51.646Z,54.00
2023-02-02T11:05:41.115Z,55.20
2023-02-02T11:08:14.888Z,54.60
2023-02-02T11:10:43.572Z,53.90
2023-02-02T11:13:15.777Z,54.50
2023-02-02T11:15:43.157Z,54.80
2023-02-02T11:18:15.976Z,54.60
2023-02-02T11:20:46.455Z,53.20
2023-02-02T11:23:19.457Z,54.70
2023-02-02T11:25:56.477Z,54.60
2023-02-02T11:28:30.149Z,55.00
2023-02-02T11:30:58.072Z,53.90
2023-02-02T11:33:29.996Z,54.40
2023-02-02T11:35:59.632Z,54.30
2023-02-02T11:38:29.185Z,55.20
2023-02-02T11:41:00.916Z,54.50
2023-02-02T11:43:31.272Z,54.30
2023-02-02T11:46:03.058Z,55.20
2023-02-02T11:48:33.319Z,54.20
2023-02-02T11:51:01.752Z,53.40
2023-02-02T11:53:33.351Z,52.50
2023-02-02T11:56:04.152Z,53.10
2023-02-02T11:58:43.524Z,52.40
2023-02-02T12:01:23.965Z,52.20
2023-02-02T12:03:52.875Z,52.60
2023-02-02T12:06:21.873Z,53.40
2023-02-02T12:08:53.213Z,53.50
2023-02-02T12:11:34.237Z,53.20
2023-02-02T12:14:17.438Z,53.40
2023-02-02T12:16:54.758Z,54.00
2023-02-02T12:19:41.428Z,56.30
2023-02-02T12:22:26.854Z,57.30
2023-02-02T12:25:00.861Z,57.60
2023-02-02T12:27:37.757Z,58.60
2023-02-02T12:30:17.781Z,58.30
2023-02-02T12:33:05.393Z,59.00
2023-02-02T12:35:52.919Z,59.90
2023-02-02T12:38:31.185Z,60.00
2023-02-02T12:41:15.486Z,60.00
2023-02-02T12:43:45.226Z,59.40
2023-02-02T12:46:32.177Z,59.40
2023-02-02T12:49:17.611Z,61.10
2023-02-02T12:52:13.295Z,59.70
2023-02-02T12:54:59.529Z,59.10
2023-02-02T12:57:36.791Z,58.20
2023-02-02T13:00:19.773Z,57.50
2023-02-02T13:03:04.540Z,55.80
2023-02-02T13:05:49.905Z,53.40
2023-02-02T13:08:21.249Z,50.30
2023-02-02T13:10:53.973Z,48.50
2023-02-02T13:13:25.276Z,49.80
2023-02-02T13:15:57.181Z,48.70
2023-02-02T13:18:28.269Z,49.00
2023-02-02T13:20:58.397Z,48.10
2023-02-02T13:23:30.549Z,47.00
2023-02-02T13:26:02.908Z,48.00
2023-02-02T13:28:38.335Z,48.70
2023-02-02T13:31:12.081Z,47.30
2023-02-02T13:33:41.171Z,48.80
2023-02-02T13:36:17.575Z,46.80
2023-02-02T13:38:45.926Z,47.00
2023-02-02T13:41:14.160Z,44.60
2023-02-02T13:43:52.579Z,46.80
2023-02-02T13:46:30.256Z,44.10
2023-02-02T13:49:05.183Z,44.50
2023-02-02T13:51:45.869Z,45.80
2023-02-02T13:54:40.192Z,45.40
2023-02-02T13:57:19.370Z,45.80
2023-02-02T14:00:00.396Z,46.60
2023-02-02T14:02:34.485Z,45.40
2023-02-02T14:05:04.315Z,43.50
2023-02-02T14:07:41.755Z,43.00
2023-02-02T14:10:22.926Z,39.90
2023-02-02T14:12:50.991Z,41.60
2023-02-02T14:15:19.930Z,41.60
2023-02-02T14:17:53.691Z,39.50
2023-02-02T14:20:42.509Z,40.00
2023-02-02T14:23:47.412Z,37.30
2023-02-02T14:26:20.182Z,38.90
2023-02-02T14:28:51.255Z,38.80
2023-02-02T14:31:43.530Z,39.20
2023-02-02T14:34:33.555Z,38.50
2023-02-02T14:37:34.781Z,39.30
2023-02-02T14:40:35.247Z,40.50
2023-02-02T14:43:33.865Z,38.90
2023-02-02T14:46:23.834Z,38.90
2023-02-02T14:51:55.646Z,39.90
2023-02-02T14:54:26.596Z,40.30
2023-02-02T14:56:58.000Z,39.70
2023-02-02T14:59:29.904Z,40.60
2023-02-02T15:02:25.180Z,40.70
2023-02-02T15:04:53.038Z,41.40
2023-02-02T15:07:51.994Z,42.50
2023-02-02T15:10:56.676Z,43.70
2023-02-02T15:13:25.850Z,43.90
2023-02-02T15:16:14.038Z,44.10
2023-02-02T15:18:49.222Z,43.40
2023-02-02T15:21:22.100Z,44.10
2023-02-02T15:23:51.012Z,43.60
2023-02-02T15:26:24.779Z,44.70
2023-02-02T15:28:59.955Z,46.00
2023-02-02T15:31:45.813Z,46.20
2023-02-02T15:34:21.744Z,45.80
2023-02-02T15:36:52.944Z,46.30
2023-02-02T15:39:27.844Z,46.90
2023-02-02T15:42:17.151Z,47.60
2023-02-02T15:44:47.791Z,47.90
2023-02-02T15:47:21.095Z,48.20
2023-02-02T15:50:05.394Z,48.50
2023-02-02T15:52:35.514Z,47.90
2023-02-02T15:55:20.799Z,48.00
2023-02-02T15:57:54.158Z,48.90
2023-02-02T16:00:28.762Z,49.20
2023-02-02T16:03:00.865Z,49.20
2023-02-02T16:05:45.729Z,49.20
2023-02-02T16:08:19.033Z,49.50
2023-02-02T16:10:50.226Z,49.50
2023-02-02T16:13:26.784Z,49.50
2023-02-02T16:15:58.788Z,50.30
2023-02-02T16:18:26.775Z,50.20
2023-02-02T16:20:54.965Z,50.30
2023-02-02T16:23:27.803Z,50.50
2023-02-02T16:25:59.189Z,50.10
2023-02-02T16:28:27.034Z,51.00
2023-02-02T16:30:55.101Z,51.10
2023-02-02T16:33:37.435Z,51.60
2023-02-02T16:36:24.464Z,51.00
2023-02-02T16:38:53.353Z,51.40
2023-02-02T16:41:30.198Z,52.10
2023-02-02T16:44:37.242Z,52.60
2023-02-02T16:47:06.139Z,51.90
2023-02-02T16:49:34.311Z,52.50
2023-02-02T16:52:11.524Z,53.50
2023-02-02T16:54:39.832Z,53.10
2023-02-02T16:57:14.085Z,53.60
2023-02-02T16:59:47.985Z,53.30
2023-02-02T17:02:27.881Z,53.30
2023-02-02T17:05:00.563Z,53.70
2023-02-02T17:07:29.682Z,54.10
2023-02-02T17:10:20.383Z,54.20
2023-02-02T17:12:48.337Z,54.40
2023-02-02T17:15:34.547Z,53.90
2023-02-02T17:18:03.714Z,54.30
2023-02-02T17:20:32.511Z,54.60
2023-02-02T17:23:03.423Z,54.80
2023-02-02T17:25:35.899Z,54.90
2023-02-02T17:28:09.873Z,54.80
2023-02-02T17:30:40.063Z,55.00
2023-02-02T17:33:11.201Z,55.10
2023-02-02T17:35:52.957Z,55.10
2023-02-02T17:38:21.955Z,55.30
2023-02-02T17:40:50.303Z,55.60
2023-02-02T17:43:17.812Z,55.90
2023-02-02T17:45:46.641Z,55.90
2023-02-02T17:48:14.707Z,55.90
2023-02-02T17:50:43.200Z,56.20
2023-02-02T17:53:11.586Z,56.50
2023-02-02T17:55:43.134Z,56.50
2023-02-02T17:58:14.451Z,56.60
2023-02-02T18:00:42.944Z,56.60
2023-02-02T18:03:16.444Z,56.90
2023-02-02T18:05:43.978Z,56.90
2023-02-02T18:08:12.445Z,57.10
2023-02-02T18:10:40.054Z,57.30
2023-02-02T18:13:07.601Z,57.30
2023-02-02T18:15:35.222Z,57.40
2023-02-02T18:18:02.794Z,57.50
2023-02-02T18:20:31.448Z,57.60
2023-02-02T18:22:59.019Z,57.80
2023-02-02T18:25:26.716Z,57.80
2023-02-02T18:27:57.292Z,58.10
2023-02-02T18:30:25.224Z,58.20
2023-02-02T18:32:53.021Z,58.20
2023-02-02T18:35:20.431Z,58.40
2023-02-02T18:37:49.313Z,58.50
2023-02-02T18:40:17.070Z,58.60
2023-02-02T18:42:44.543Z,58.60
2023-02-02T18:45:12.096Z,58.70
2023-02-02T18:47:41.313Z,58.80
2023-02-02T18:50:10.049Z,58.90
2023-02-02T18:52:37.383Z,59.20
2023-02-02T18:55:06.647Z,59.20
2023-02-02T18:57:33.928Z,59.20
2023-02-02T19:00:01.325Z,59.20
2023-02-02T19:02:28.647Z,59.30
2023-02-02T19:05:14.775Z,59.40
2023-02-02T19:07:58.062Z,59.60
2023-02-02T19:10:28.146Z,59.80
2023-02-02T19:12:58.473Z,59.70
2023-02-02T19:15:26.669Z,60.00
2023-02-02T19:17:55.239Z,59.90
2023-02-02T19:20:27.597Z,59.80
2023-02-02T19:23:06.478Z,60.00
2023-02-02T19:25:35.060Z,60.20
2023-02-02T19:28:11.848Z,60.60
2023-02-02T19:30:42.797Z,60.60
2023-02-02T19:33:11.446Z,60.60
2023-02-02T19:35:39.260Z,60.90
2023-02-02T19:38:12.239Z,61.00
2023-02-02T19:40:42.315Z,61.20
2023-02-02T19:43:23.142Z,61.50
2023-02-02T19:45:50.656Z,61.60
2023-02-02T19:48:20.577Z,61.70
2023-02-02T19:50:47.782Z,61.90
2023-02-02T19:53:19.764Z,62.30
2023-02-02T19:55:48.981Z,62.50
2023-02-02T19:58:19.488Z,62.60
2023-02-02T20:00:47.356Z,62.70
2023-02-02T20:03:18.911Z,62.80
2023-02-02T20:05:48.336Z,63.00
2023-02-02T20:08:23.338Z,63.10
2023-02-02T20:10:53.287Z,63.40
2023-02-02T20:13:22.581Z,63.40
2023-02-02T20:15:52.363Z,63.40
2023-02-02T20:18:22.669Z,63.50
2023-02-02T20:20:52.951Z,63.70
2023-02-02T20:23:30.506Z,63.90
2023-02-02T20:26:02.119Z,64.00
2023-02-02T20:28:37.996Z,64.00
2023-02-02T20:31:07.757Z,64.00
2023-02-02T20:33:36.092Z,64.00
2023-02-02T20:36:21.956Z,63.40
2023-02-02T20:38:49.364Z,63.50
2023-02-02T20:41:18.800Z,63.40
2023-02-02T20:43:46.396Z,63.10
2023-02-02T20:46:15.208Z,63.20
2023-02-02T20:48:42.755Z,63.30
2023-02-02T20:51:10.278Z,63.20
2023-02-02T20:53:39.362Z,63.30
2023-02-02T20:56:07.224Z,63.30
2023-02-02T20:58:36.019Z,63.40
2023-02-02T21:01:05.456Z,63.50
2023-02-02T21:03:33.050Z,63.50
2023-02-02T21:06:00.950Z,63.50
2023-02-02T21:08:28.431Z,63.60
2023-02-02T21:10:56.193Z,63.50
2023-02-02T21:13:23.640Z,63.50
2023-02-02T21:15:52.350Z,63.80
2023-02-02T21:18:19.821Z,63.70
2023-02-02T21:20:47.354Z,63.70
2023-02-02T21:23:15.049Z,63.70
2023-02-02T21:25:42.632Z,63.70
2023-02-02T21:28:10.868Z,63.80
2023-02-02T21:30:38.324Z,63.90
2023-02-02T21:33:07.095Z,64.10
2023-02-02T21:35:34.681Z,64.10
2023-02-02T21:38:10.116Z,64.30
2023-02-02T21:40:37.862Z,64.40
2023-02-02T21:43:13.457Z,64.60
2023-02-02T21:45:42.838Z,64.80
2023-02-02T21:48:25.981Z,65.00
2023-02-02T21:50:53.321Z,65.10
2023-02-02T21:53:22.567Z,65.30
2023-02-02T21:55:54.418Z,65.50
2023-02-02T21:58:24.824Z,65.40
2023-02-02T22:00:53.283Z,65.70
2023-02-02T22:03:32.983Z,66.00
2023-02-02T22:06:18.112Z,66.10
2023-02-02T22:08:45.410Z,66.20
2023-02-02T22:11:22.234Z,66.20
2023-02-02T22:13:50.704Z,66.40
2023-02-02T22:16:20.717Z,66.70
2023-02-02T22:18:49.495Z,66.90
2023-02-02T22:21:20.616Z,67.10
2023-02-02T22:23:48.268Z,67.20
2023-02-02T22:26:29.995Z,67.60
2023-02-02T22:28:57.276Z,67.60
2023-02-02T22:31:24.777Z,67.70
2023-02-02T22:33:53.365Z,67.70
2023-02-02T22:36:20.596Z,67.80
2023-02-02T22:38:47.827Z,68.00
2023-02-02T22:41:15.111Z,68.00
2023-02-02T22:43:42.353Z,68.00
2023-02-02T22:46:09.612Z,68.20
2023-02-02T22:48:37.279Z,68.40
2023-02-02T22:51:05.851Z,68.50
2023-02-02T22:53:33.480Z,68.30
2023-02-02T22:56:00.904Z,68.80
2023-02-02T22:58:28.151Z,68.90
2023-02-02T23:00:55.921Z,69.00
2023-02-02T23:03:23.247Z,69.10
2023-02-02T23:05:50.433Z,69.30
2023-02-02T23:08:18.978Z,69.20
2023-02-02T23:10:46.308Z,69.30
2023-02-02T23:13:13.542Z,69.30
2023-02-02T23:15:40.800Z,69.40
2023-02-02T23:18:08.088Z,69.20
2023-02-02T23:20:35.550Z,69.20
2023-02-02T23:23:02.812Z,69.20
2023-02-02T23:25:31.448Z,69.30
2023-02-02T23:27:58.764Z,69.30
2023-02-02T23:30:26.328Z,69.50
2023-02-02T23:32:53.734Z,69.70
2023-02-02T23:35:20.991Z,69.80
2023-02-02T23:37:48.246Z,69.80
2023-02-02T23:40:15.619Z,69.70
2023-02-02T23:42:44.159Z,69.40
2023-02-02T23:45:11.378Z,69.70
2023-02-02T23:47:39.004Z,70.00
2023-02-02T23:50:09.095Z,70.10
2023-02-02T23:52:37.270Z,70.30
2023-02-02T23:55:05.799Z,70.40
2023-02-02T23:57:33.800Z,70.60
